Maghera, United Kingdom
Current Conditions -  °F | °C
As of 11:20 AM on Tuesday 21 Oct 2014 (Local Time) from EGAA Reporting Station
Rain Showers Rain Showers  
Wind Chill: 40°   Ceiling: 4100
Heat Index: 48°   Visibility: 6mi
Dew Point: 39°   Wind: 24mph
Humidity: 71%   Direction: 310°NW
Pressure: 29.68"   Gusts: 41mph
Location:  54.84°N, 6.67°W
Report Text: EGAA 211020Z 31021G36KT 9999 SHRA FEW014 SCT029 BKN041CB 09/04 Q1005
Loading
Personal Weather Stations






























Interactive Weather Map
Tropical Storm Tracking
New forecast layout! Learn more

10-Day Weather Forecast

Advertisements
Track Severe Weather on mobile